Time;durP1;ratioP1;P1;durP2;ratioP2;P2;SDS_P1;SDS_P2;PMS_P1;PMS_P2;Temp;Humidity;BMP_temperature;BMP_pressure;BME280_temperature;BME280_humidity;BME280_pressure;Samples;Min_cycle;Max_cycle;Signal;HPM_P1;HPM_P2
2023/11/10 00:01:58;;;;;;;8.33;5.90;;;;;;;7.04;100.00;100795.56;4973214;28;20542;-76
2023/11/10 00:04:24;;;;;;;9.80;6.70;;;;;;;7.22;100.00;100814.78;4981001;28;20201;-74
2023/11/10 00:06:52;;;;;;;8.13;6.53;;;;;;;7.27;100.00;100806.25;4960255;28;20245;-74
2023/11/10 00:09:18;;;;;;;11.33;7.00;;;;;;;7.34;100.00;100793.00;4974688;28;20604;-73
2023/11/10 00:11:44;;;;;;;12.40;6.83;;;;;;;7.18;100.00;100810.81;4956064;28;20897;-75
2023/11/10 00:14:10;;;;;;;9.80;7.00;;;;;;;7.27;100.00;100808.91;4977991;28;20848;-75
2023/11/10 00:16:35;;;;;;;11.10;6.83;;;;;;;6.98;100.00;100814.94;4959006;28;20471;-74
2023/11/10 00:19:02;;;;;;;13.57;7.00;;;;;;;7.17;100.00;100816.31;4977646;28;20436;-76
2023/11/10 00:21:28;;;;;;;10.63;7.90;;;;;;;6.63;100.00;100755.81;4974291;28;20988;-74
2023/11/10 00:23:54;;;;;;;8.67;7.77;;;;;;;7.00;100.00;100795.09;4956919;28;20437;-76
2023/11/10 00:26:23;;;;;;;9.00;8.03;;;;;;;6.99;100.00;100800.59;4977049;28;20464;-74
2023/11/10 00:28:50;;;;;;;11.70;8.13;;;;;;;6.88;100.00;100801.81;4979714;28;20194;-74
2023/11/10 00:31:16;;;;;;;11.20;8.30;;;;;;;6.86;100.00;100758.53;4976204;28;20465;-74
2023/11/10 00:33:41;;;;;;;9.67;7.43;;;;;;;6.60;100.00;100736.69;4979683;28;20438;-75
2023/11/10 00:36:07;;;;;;;12.97;9.37;;;;;;;6.56;100.00;100733.53;4979733;28;20184;-75
2023/11/10 00:38:32;;;;;;;11.87;8.80;;;;;;;6.66;100.00;100725.31;4977355;28;20604;-74
2023/11/10 00:40:58;;;;;;;14.87;9.30;;;;;;;6.97;100.00;100807.94;4981109;28;20227;-74
2023/11/10 00:43:23;;;;;;;14.60;8.73;;;;;;;6.77;100.00;100765.75;4977879;28;20196;-74
2023/11/10 00:45:50;;;;;;;10.17;8.60;;;;;;;7.24;100.00;100806.59;4978558;28;20193;-74
2023/11/10 00:48:17;;;;;;;9.10;7.63;;;;;;;7.05;100.00;100799.88;4977561;28;20248;-74
2023/11/10 00:50:43;;;;;;;10.57;8.50;;;;;;;6.83;100.00;100774.88;4980011;28;20844;-74
2023/11/10 00:53:08;;;;;;;11.87;8.63;;;;;;;6.34;100.00;100724.50;4980817;28;20449;-73
2023/11/10 00:55:34;;;;;;;10.90;8.47;;;;;;;6.37;100.00;100686.84;4967064;28;20193;-74
2023/11/10 00:57:59;;;;;;;10.80;8.97;;;;;;;6.83;100.00;100798.88;4981969;28;20201;-74
2023/11/10 01:00:26;;;;;;;10.70;9.60;;;;;;;6.82;100.00;100785.69;4978932;28;20190;-74
2023/11/10 01:02:52;;;;;;;10.80;8.80;;;;;;;7.02;100.00;100800.25;4973704;28;20468;-73
2023/11/10 01:05:19;;;;;;;10.50;9.40;;;;;;;6.68;100.00;100768.59;4977393;28;20475;-76
2023/11/10 01:07:45;;;;;;;11.50;9.40;;;;;;;6.37;100.00;100702.00;4974654;28;21045;-74
2023/11/10 01:10:12;;;;;;;11.87;9.33;;;;;;;6.90;100.00;100807.81;4959406;28;20457;-75
2023/11/10 01:12:38;;;;;;;11.00;9.43;;;;;;;6.75;100.00;100740.25;4972491;28;20219;-76
2023/11/10 01:15:05;;;;;;;11.60;8.70;;;;;;;6.78;100.00;100710.59;4978481;28;20771;-74
2023/11/10 01:17:31;;;;;;;12.07;9.50;;;;;;;6.70;100.00;100723.97;4960630;28;20197;-74
2023/11/10 01:19:58;;;;;;;14.03;10.10;;;;;;;7.03;100.00;100753.91;4963993;28;20527;-73
2023/11/10 01:22:26;;;;;;;10.10;8.00;;;;;;;6.82;100.00;100733.19;4974263;28;20466;-74
2023/11/10 01:24:51;;;;;;;12.17;8.37;;;;;;;6.82;100.00;100748.38;4973641;28;20527;-76
2023/11/10 01:27:18;;;;;;;10.07;8.00;;;;;;;6.74;100.00;100704.78;4971654;28;20507;-74
2023/11/10 01:29:46;;;;;;;9.73;8.40;;;;;;;6.97;100.00;100738.59;4963659;28;20225;-74
2023/11/10 01:32:12;;;;;;;10.20;7.97;;;;;;;7.10;100.00;100748.69;4957959;28;20521;-73
2023/11/10 01:34:40;;;;;;;11.50;8.00;;;;;;;7.06;100.00;100745.56;4976601;28;20985;-74
2023/11/10 01:37:06;;;;;;;9.30;7.60;;;;;;;6.98;100.00;100721.59;4976368;28;20460;-73
2023/11/10 01:39:32;;;;;;;8.70;7.47;;;;;;;7.08;100.00;100724.03;4979696;28;20916;-75
2023/11/10 01:41:58;;;;;;;11.03;7.50;;;;;;;6.83;100.00;100726.88;4975167;28;20749;-74
2023/11/10 01:44:23;;;;;;;10.93;7.50;;;;;;;6.89;100.00;100712.84;4984857;28;20438;-74
2023/11/10 01:46:50;;;;;;;9.67;7.37;;;;;;;6.95;100.00;100725.47;4982961;28;20186;-73
2023/11/10 01:49:21;;;;;;;12.60;7.50;;;;;;;6.97;100.00;100736.78;4969945;28;20205;-75
2023/11/10 01:51:48;;;;;;;13.40;6.83;;;;;;;6.96;100.00;100721.78;4984200;28;20453;-75
2023/11/10 01:54:17;;;;;;;7.83;6.70;;;;;;;6.98;100.00;100713.59;4979473;28;20455;-74
2023/11/10 01:56:42;;;;;;;8.50;6.80;;;;;;;7.09;100.00;100731.88;4979143;28;21311;-73
2023/11/10 01:59:12;;;;;;;8.20;6.53;;;;;;;7.12;100.00;100712.84;4975236;28;20446;-75
2023/11/10 02:01:38;;;;;;;6.67;5.77;;;;;;;6.65;100.00;100620.53;4976484;28;20473;-76
2023/11/10 02:04:04;;;;;;;8.23;6.07;;;;;;;7.14;100.00;100692.13;4961584;28;20440;-74
2023/11/10 02:06:31;;;;;;;7.73;6.03;;;;;;;6.94;100.00;100617.16;4978041;28;20440;-73
2023/11/10 02:08:59;;;;;;;10.30;5.20;;;;;;;7.23;100.00;100664.38;4984243;28;21931;-75
2023/11/10 02:11:31;;;;;;;10.33;5.13;;;;;;;6.54;100.00;100575.66;4985385;28;20480;-76
2023/11/10 02:14:07;;;;;;;7.30;5.50;;;;;;;7.13;100.00;100650.47;4978742;28;20433;-74
2023/11/10 02:16:33;;;;;;;7.97;5.00;;;;;;;7.12;100.00;100638.16;4959012;28;20508;-74
2023/11/10 02:19:00;;;;;;;6.63;4.70;;;;;;;7.20;100.00;100662.09;4981720;28;20433;-74
2023/11/10 02:21:25;;;;;;;7.13;5.10;;;;;;;6.73;100.00;100590.31;4980560;28;21136;-75
2023/11/10 02:23:56;;;;;;;8.43;4.80;;;;;;;7.28;100.00;100655.81;4975689;28;20474;-74
2023/11/10 02:26:22;;;;;;;7.83;4.47;;;;;;;6.83;100.00;100620.25;4978113;28;20696;-74
2023/11/10 02:28:47;;;;;;;7.07;4.03;;;;;;;7.08;100.00;100638.69;4978117;28;20458;-73
2023/11/10 02:31:13;;;;;;;6.37;3.93;;;;;;;7.14;100.00;100651.28;4959218;28;20210;-74
2023/11/10 02:33:39;;;;;;;7.27;3.83;;;;;;;7.30;100.00;100636.97;4969702;28;20381;-74
2023/11/10 02:36:07;;;;;;;5.57;3.70;;;;;;;7.13;100.00;100610.47;4974119;28;20187;-74
2023/11/10 02:38:36;;;;;;;8.53;4.53;;;;;;;7.16;100.00;100642.09;4960034;28;20442;-76
2023/11/10 02:41:03;;;;;;;6.13;3.53;;;;;;;7.25;100.00;100645.53;4976874;28;20456;-73
2023/11/10 02:43:28;;;;;;;8.90;4.43;;;;;;;7.06;100.00;100638.03;4957924;28;21105;-76
2023/11/10 02:45:53;;;;;;;7.43;4.23;;;;;;;6.91;100.00;100606.00;4977317;28;20445;-74
2023/11/10 02:48:19;;;;;;;5.10;3.43;;;;;;;6.78;100.00;100571.97;4972817;28;20833;-73
2023/11/10 02:50:46;;;;;;;7.50;3.73;;;;;;;6.99;100.00;100585.41;4969612;28;20214;-75
2023/11/10 02:53:12;;;;;;;5.47;3.13;;;;;;;6.82;100.00;100565.25;4955129;28;20190;-75
2023/11/10 02:55:38;;;;;;;5.63;3.57;;;;;;;7.09;100.00;100617.19;4955855;28;20442;-75
2023/11/10 02:58:03;;;;;;;7.20;3.93;;;;;;;6.85;100.00;100559.56;4975234;28;20190;-74
2023/11/10 03:00:29;;;;;;;5.90;3.70;;;;;;;6.74;100.00;100563.50;4974435;28;20281;-73
2023/11/10 03:02:54;;;;;;;5.50;3.23;;;;;;;7.04;100.00;100589.38;4971284;28;20217;-74
2023/11/10 03:05:19;;;;;;;7.20;3.10;;;;;;;7.13;100.00;100602.44;4978827;28;20178;-74
2023/11/10 03:07:45;;;;;;;6.40;3.43;;;;;;;7.07;100.00;100575.69;4978293;28;20186;-74
2023/11/10 03:10:11;;;;;;;7.40;3.40;;;;;;;6.88;100.00;100559.19;4956637;28;20205;-75
2023/11/10 03:12:37;;;;;;;6.30;3.50;;;;;;;7.02;100.00;100549.56;4975599;28;20253;-74
2023/11/10 03:15:03;;;;;;;4.63;2.53;;;;;;;7.23;100.00;100557.69;4974364;28;20514;-74
2023/11/10 03:17:29;;;;;;;5.70;2.33;;;;;;;7.14;100.00;100558.75;4973831;28;20450;-75
2023/11/10 03:19:58;;;;;;;7.00;2.40;;;;;;;7.14;100.00;100566.75;4960086;28;20187;-75
2023/11/10 03:22:24;;;;;;;6.17;2.80;;;;;;;6.95;100.00;100551.31;4976433;28;20511;-74
2023/11/10 03:24:50;;;;;;;7.50;2.87;;;;;;;7.05;100.00;100573.19;4975261;28;20457;-73
2023/11/10 03:27:16;;;;;;;7.70;2.90;;;;;;;7.14;100.00;100587.28;4956123;28;20206;-74
2023/11/10 03:29:42;;;;;;;8.00;2.70;;;;;;;7.28;100.00;100589.13;4973679;28;20224;-75
2023/11/10 03:32:08;;;;;;;8.50;3.00;;;;;;;6.92;100.00;100562.34;4976278;28;20495;-74
2023/11/10 03:34:41;;;;;;;8.07;2.80;;;;;;;7.02;100.00;100565.56;4974473;28;20528;-74
2023/11/10 03:37:10;;;;;;;8.50;3.00;;;;;;;7.08;100.00;100577.34;4958217;28;20449;-76
2023/11/10 03:39:36;;;;;;;5.43;2.57;;;;;;;6.72;100.00;100541.53;4977777;28;20441;-74
2023/11/10 03:42:02;;;;;;;4.57;2.50;;;;;;;6.89;100.00;100568.88;4979069;28;20468;-74
2023/11/10 03:44:28;;;;;;;7.77;2.87;;;;;;;6.82;100.00;100562.59;4977704;28;20189;-73
2023/11/10 03:46:53;;;;;;;8.57;2.67;;;;;;;7.05;100.00;100596.38;4959300;28;20522;-74
2023/11/10 03:49:20;;;;;;;5.70;2.90;;;;;;;6.72;100.00;100549.53;4976356;28;20218;-75
2023/11/10 03:51:47;;;;;;;4.50;2.50;;;;;;;6.89;100.00;100578.69;4979197;28;20201;-75
2023/11/10 03:54:13;;;;;;;6.33;2.80;;;;;;;6.51;100.00;100515.56;4976486;28;20454;-73
2023/11/10 03:56:39;;;;;;;7.50;2.67;;;;;;;6.81;100.00;100584.94;4956468;28;20444;-73
2023/11/10 03:59:09;;;;;;;4.53;2.50;;;;;;;7.00;100.00;100596.91;4973684;28;20507;-74
2023/11/10 04:01:35;;;;;;;6.30;2.93;;;;;;;7.22;100.00;100592.53;4974954;28;20206;-74
2023/11/10 04:04:01;;;;;;;5.20;2.80;;;;;;;7.10;100.00;100580.66;4963869;28;20437;-75
2023/11/10 04:06:26;;;;;;;5.03;2.67;;;;;;;6.91;100.00;100550.81;4972846;28;25738;-74
2023/11/10 04:08:52;;;;;;;8.30;2.90;;;;;;;7.12;100.00;100560.81;4975003;28;20955;-74
2023/11/10 04:11:17;;;;;;;7.03;2.87;;;;;;;7.12;100.00;100567.97;4974335;28;20220;-74
2023/11/10 04:13:44;;;;;;;6.27;2.60;;;;;;;7.12;100.00;100562.66;4977163;28;20187;-74
2023/11/10 04:16:22;;;;;;;7.77;2.90;;;;;;;7.10;100.00;100557.47;4971179;28;20193;-75
2023/11/10 04:18:49;;;;;;;4.53;2.70;;;;;;;7.15;100.00;100557.75;4958742;28;20445;-74
2023/11/10 04:21:17;;;;;;;4.63;2.50;;;;;;;6.68;100.00;100486.06;4968780;28;20481;-74
2023/11/10 04:23:42;;;;;;;5.93;2.73;;;;;;;7.04;100.00;100534.22;4956891;28;20832;-75
2023/11/10 04:26:09;;;;;;;5.83;2.90;;;;;;;7.09;100.00;100544.31;4968841;28;20440;-74
2023/11/10 04:28:38;;;;;;;6.63;3.47;;;;;;;6.93;100.00;100519.47;4974945;28;20247;-75
2023/11/10 04:31:03;;;;;;;9.70;3.03;;;;;;;7.16;100.00;100547.91;4971087;28;20628;-74
2023/11/10 04:33:29;;;;;;;6.57;4.03;;;;;;;6.94;100.00;100537.16;4973962;28;20452;-74
2023/11/10 04:35:55;;;;;;;6.90;2.70;;;;;;;7.09;100.00;100546.97;4976848;28;20197;-74
2023/11/10 04:38:20;;;;;;;5.87;3.17;;;;;;;7.10;100.00;100546.00;4973065;28;20284;-75
2023/11/10 04:40:46;;;;;;;7.70;2.87;;;;;;;6.92;100.00;100475.19;4959516;28;20209;-74
2023/11/10 04:43:11;;;;;;;8.37;3.23;;;;;;;7.07;100.00;100541.03;4974727;28;20805;-75
2023/11/10 04:45:37;;;;;;;8.23;2.30;;;;;;;7.05;100.00;100543.03;4967397;28;20198;-75
2023/11/10 04:48:04;;;;;;;6.17;2.60;;;;;;;6.98;100.00;100524.28;4975195;28;20195;-74
2023/11/10 04:50:29;;;;;;;5.43;2.77;;;;;;;7.03;100.00;100529.91;4979459;28;20355;-75
2023/11/10 04:52:55;;;;;;;7.13;2.80;;;;;;;7.22;100.00;100550.66;4971858;28;20445;-76
2023/11/10 04:55:20;;;;;;;5.67;2.63;;;;;;;7.14;100.00;100558.75;4974512;28;20762;-74
2023/11/10 04:57:46;;;;;;;6.40;2.47;;;;;;;7.13;100.00;100543.78;4972154;28;20230;-74
2023/11/10 05:00:13;;;;;;;8.50;3.17;;;;;;;7.10;100.00;100535.31;4959067;28;20193;-74
2023/11/10 05:02:39;;;;;;;3.63;2.50;;;;;;;6.99;100.00;100508.06;4960227;28;20723;-73
2023/11/10 05:05:07;;;;;;;4.67;2.30;;;;;;;6.60;100.00;100440.88;4976586;28;20437;-75
2023/11/10 05:07:33;;;;;;;9.60;3.53;;;;;;;7.07;100.00;100522.34;4970735;28;20302;-75
2023/11/10 05:10:00;;;;;;;4.67;2.63;;;;;;;6.77;100.00;100453.03;4972976;28;20991;-75
2023/11/10 05:12:26;;;;;;;6.53;2.90;;;;;;;7.05;100.00;100503.84;4973246;28;20214;-75
2023/11/10 05:14:52;;;;;;;7.50;2.50;;;;;;;6.66;100.00;100437.47;4980697;28;20448;-74
2023/11/10 05:17:17;;;;;;;4.30;2.47;;;;;;;7.28;100.00;100511.75;4974709;28;20813;-75
2023/11/10 05:19:43;;;;;;;7.97;2.97;;;;;;;7.13;100.00;100493.09;4976566;28;20655;-75
2023/11/10 05:22:08;;;;;;;3.63;2.33;;;;;;;7.17;100.00;100525.56;4980514;28;20589;-75
2023/11/10 05:24:33;;;;;;;6.13;2.23;;;;;;;7.45;100.00;100518.56;4980640;28;20280;-74
2023/11/10 05:26:59;;;;;;;6.07;2.40;;;;;;;7.00;100.00;100487.56;4979444;28;20202;-75
2023/11/10 05:29:25;;;;;;;6.67;3.00;;;;;;;7.25;100.00;100504.94;4981893;28;20221;-75
2023/11/10 05:31:52;;;;;;;5.67;2.50;;;;;;;7.12;100.00;100514.63;4978120;28;20216;-73
2023/11/10 05:34:17;;;;;;;7.73;2.70;;;;;;;7.17;100.00;100520.22;4978324;28;20722;-74
2023/11/10 05:36:43;;;;;;;5.00;2.40;;;;;;;7.06;100.00;100532.19;4978905;28;20448;-74
2023/11/10 05:39:09;;;;;;;7.73;2.63;;;;;;;7.05;100.00;100521.69;4969502;28;20661;-73
2023/11/10 05:41:36;;;;;;;6.40;3.10;;;;;;;7.10;100.00;100513.97;4981452;28;20467;-74
2023/11/10 05:44:01;;;;;;;6.20;2.57;;;;;;;6.97;100.00;100520.78;4981794;28;20818;-76
2023/11/10 05:46:27;;;;;;;9.80;3.07;;;;;;;7.10;100.00;100521.97;4976290;28;20440;-74
2023/11/10 05:48:52;;;;;;;6.97;2.80;;;;;;;7.07;100.00;100527.69;4977737;28;20194;-73
2023/11/10 05:51:17;;;;;;;9.10;2.70;;;;;;;7.18;100.00;100541.38;4980847;28;20248;-76
2023/11/10 05:53:43;;;;;;;6.70;3.10;;;;;;;7.05;100.00;100546.53;4962184;28;20215;-74
2023/11/10 05:56:09;;;;;;;6.77;3.37;;;;;;;7.16;100.00;100542.59;4975733;28;20780;-74
2023/11/10 05:58:35;;;;;;;8.37;3.57;;;;;;;6.87;100.00;100540.72;4981104;28;20217;-75
2023/11/10 06:01:00;;;;;;;6.13;3.07;;;;;;;7.01;100.00;100547.91;4959727;28;20878;-75
2023/11/10 06:03:27;;;;;;;6.30;3.30;;;;;;;6.70;100.00;100534.72;4977979;28;20571;-74
2023/11/10 06:05:55;;;;;;;7.97;3.70;;;;;;;6.85;100.00;100562.22;4960550;28;20186;-75
2023/11/10 06:08:22;;;;;;;12.20;3.90;;;;;;;6.96;100.00;100583.09;4979757;28;20453;-73
2023/11/10 06:10:52;;;;;;;7.17;3.33;;;;;;;7.05;100.00;100580.38;4982032;28;20542;-74
2023/11/10 06:13:18;;;;;;;7.13;3.50;;;;;;;6.99;100.00;100589.91;4978272;28;20478;-74
2023/11/10 06:15:44;;;;;;;8.43;3.80;;;;;;;6.86;100.00;100558.56;4975773;28;20436;-75
2023/11/10 06:18:09;;;;;;;9.00;3.90;;;;;;;6.83;100.00;100579.41;4980020;28;20505;-74
2023/11/10 06:20:35;;;;;;;6.43;3.07;;;;;;;7.01;100.00;100611.91;4967179;28;20184;-74
2023/11/10 06:23:00;;;;;;;6.03;3.07;;;;;;;6.64;100.00;100514.94;4982118;28;20663;-74
2023/11/10 06:25:26;;;;;;;6.73;3.33;;;;;;;7.03;100.00;100604.56;4984385;28;20197;-73
2023/11/10 06:27:52;;;;;;;7.00;3.33;;;;;;;6.97;100.00;100599.94;4985329;28;20202;-74
2023/11/10 06:30:18;;;;;;;5.67;3.40;;;;;;;6.97;100.00;100584.78;4957866;28;20249;-73
2023/11/10 06:32:44;;;;;;;8.83;4.00;;;;;;;6.81;100.00;100552.13;4961370;28;20471;-73
2023/11/10 06:35:09;;;;;;;8.33;4.17;;;;;;;6.93;100.00;100588.81;4982856;28;20462;-74
2023/11/10 06:37:35;;;;;;;7.17;3.17;;;;;;;6.99;100.00;100596.06;4983994;28;20194;-73
2023/11/10 06:40:02;;;;;;;10.97;4.03;;;;;;;6.84;100.00;100552.56;4977145;28;20186;-73
2023/11/10 06:42:28;;;;;;;9.17;4.30;;;;;;;6.51;100.00;100526.22;4967552;28;20553;-73
2023/11/10 06:44:53;;;;;;;7.90;4.03;;;;;;;6.94;100.00;100578.97;4967330;28;20467;-73
2023/11/10 06:47:19;;;;;;;6.60;4.20;;;;;;;6.94;100.00;100566.50;4983319;28;20332;-73
2023/11/10 06:49:44;;;;;;;4.63;3.20;;;;;;;7.07;100.00;100557.84;4988722;28;20213;-73
2023/11/10 06:52:11;;;;;;;8.60;3.87;;;;;;;6.97;100.00;100560.78;4966954;28;20694;-74
2023/11/10 06:54:36;;;;;;;11.43;4.87;;;;;;;7.06;100.00;100580.19;4982300;28;20251;-74
2023/11/10 06:57:02;;;;;;;10.67;4.63;;;;;;;6.37;100.00;100505.69;4964688;28;20442;-74
2023/11/10 06:59:28;;;;;;;5.87;3.40;;;;;;;6.92;100.00;100613.00;4985328;28;20200;-73
2023/11/10 07:01:54;;;;;;;10.40;4.23;;;;;;;6.81;100.00;100608.09;4983973;28;20457;-73
2023/11/10 07:04:21;;;;;;;8.57;3.80;;;;;;;6.61;100.00;100591.75;4983764;28;20461;-73
2023/11/10 07:06:47;;;;;;;7.57;4.00;;;;;;;7.11;100.00;100635.66;4990117;28;20281;-74
2023/11/10 07:09:12;;;;;;;8.77;3.73;;;;;;;6.86;100.00;100641.22;4991888;28;20544;-73
2023/11/10 07:11:41;;;;;;;9.70;5.83;;;;;;;6.84;100.00;100653.88;4984860;28;20255;-73
2023/11/10 07:14:07;;;;;;;10.50;4.10;;;;;;;6.87;100.00;100656.19;4983104;28;20194;-73
2023/11/10 07:16:33;;;;;;;9.60;3.80;;;;;;;6.56;100.00;100598.44;4982828;28;20434;-73
2023/11/10 07:18:59;;;;;;;6.17;3.70;;;;;;;6.82;100.00;100665.72;4985491;28;20448;-73
2023/11/10 07:21:29;;;;;;;8.73;4.13;;;;;;;6.80;100.00;100684.59;4972303;28;20235;-73
2023/11/10 07:23:54;;;;;;;12.73;4.10;;;;;;;6.87;100.00;100687.34;4986170;28;20433;-73
2023/11/10 07:26:20;;;;;;;10.47;4.73;;;;;;;6.80;100.00;100697.91;4965433;28;20483;-73
2023/11/10 07:28:46;;;;;;;7.70;4.17;;;;;;;6.86;100.00;100707.88;4984893;28;20277;-73
2023/11/10 07:31:11;;;;;;;6.17;3.87;;;;;;;6.88;100.00;100695.16;4971795;28;20210;-72
2023/11/10 07:33:37;;;;;;;11.93;4.47;;;;;;;7.05;100.00;100705.72;4981833;28;20185;-73
2023/11/10 07:36:04;;;;;;;15.87;4.80;;;;;;;6.82;100.00;100687.06;4970006;28;20208;-74
2023/11/10 07:38:29;;;;;;;10.67;4.70;;;;;;;6.65;100.00;100657.00;4989395;28;20618;-73
2023/11/10 07:40:54;;;;;;;6.73;4.63;;;;;;;6.53;100.00;100636.09;4988972;28;20565;-73
2023/11/10 07:43:20;;;;;;;7.60;4.50;;;;;;;6.65;100.00;100694.34;4987414;28;20197;-73
2023/11/10 07:45:46;;;;;;;8.63;5.13;;;;;;;6.94;100.00;100737.16;4983545;28;20692;-73
2023/11/10 07:48:13;;;;;;;9.67;4.73;;;;;;;6.66;100.00;100699.50;4977638;28;20438;-73
2023/11/10 07:50:39;;;;;;;10.30;4.47;;;;;;;6.98;100.00;100725.09;4981730;28;20534;-73
2023/11/10 07:53:05;;;;;;;10.33;3.90;;;;;;;6.93;100.00;100705.31;4968657;28;20460;-73
2023/11/10 07:55:31;;;;;;;9.10;3.80;;;;;;;7.01;100.00;100707.91;4981655;28;20288;-74
2023/11/10 07:57:56;;;;;;;8.83;4.40;;;;;;;7.03;100.00;100711.25;4982997;28;20536;-73
2023/11/10 08:00:22;;;;;;;9.00;4.17;;;;;;;6.86;100.00;100673.19;4976129;28;20197;-73
2023/11/10 08:02:53;;;;;;;11.53;3.77;;;;;;;6.57;100.00;100666.75;4981559;28;20218;-74
2023/11/10 08:05:20;;;;;;;5.80;3.40;;;;;;;7.18;100.00;100762.78;4981620;28;20876;-73
2023/11/10 08:07:46;;;;;;;6.93;4.27;;;;;;;6.85;100.00;100718.69;4984158;28;20437;-73
2023/11/10 08:10:13;;;;;;;7.47;4.17;;;;;;;7.11;100.00;100740.50;4978727;28;20476;-73
2023/11/10 08:12:39;;;;;;;8.60;4.40;;;;;;;6.84;100.00;100703.72;4980691;28;20978;-74
2023/11/10 08:15:05;;;;;;;9.23;4.80;;;;;;;7.02;100.00;100734.38;4982479;28;20429;-74
2023/11/10 08:17:30;;;;;;;7.37;4.13;;;;;;;6.92;100.00;100690.31;4984000;28;20185;-73
2023/11/10 08:19:56;;;;;;;10.40;3.80;;;;;;;6.99;100.00;100697.41;4985915;28;20887;-73
2023/11/10 08:22:22;;;;;;;11.90;4.43;;;;;;;7.17;100.00;100729.09;4988423;28;20640;-73
2023/11/10 08:24:48;;;;;;;5.77;4.10;;;;;;;7.27;100.00;100750.22;4987094;28;20455;-73
2023/11/10 08:27:14;;;;;;;7.20;4.50;;;;;;;7.32;100.00;100758.53;4988312;28;20472;-73
2023/11/10 08:29:39;;;;;;;9.37;4.40;;;;;;;7.41;100.00;100749.44;4989428;28;20472;-73
2023/11/10 08:32:05;;;;;;;12.60;5.10;;;;;;;7.24;100.00;100716.72;4987721;28;20244;-73
2023/11/10 08:34:31;;;;;;;6.40;4.20;;;;;;;6.82;100.00;100650.56;4966479;28;20299;-73
2023/11/10 08:36:57;;;;;;;7.33;4.90;;;;;;;7.36;100.00;100743.81;4987020;28;20187;-73
2023/11/10 08:39:23;;;;;;;6.20;4.20;;;;;;;7.47;100.00;100745.22;4988495;28;20198;-73
2023/11/10 08:41:49;;;;;;;7.23;4.47;;;;;;;7.34;100.00;100723.63;4981639;28;20463;-73
2023/11/10 08:44:18;;;;;;;8.17;4.23;;;;;;;7.43;100.00;100744.75;4984621;28;20865;-73
2023/11/10 08:46:44;;;;;;;6.00;3.60;;;;;;;7.42;100.00;100729.75;4986744;28;20273;-73
2023/11/10 08:49:13;;;;;;;13.00;4.43;;;;;;;7.36;100.00;100689.63;4974160;28;20488;-73
2023/11/10 08:51:40;;;;;;;7.73;4.50;;;;;;;7.37;100.00;100704.59;4973126;28;20449;-73
2023/11/10 08:54:06;;;;;;;9.23;4.70;;;;;;;7.27;100.00;100699.53;4991610;28;20436;-73
2023/11/10 08:56:31;;;;;;;9.13;4.63;;;;;;;7.56;100.00;100697.94;4976671;28;20440;-73
2023/11/10 08:58:57;;;;;;;10.80;4.30;;;;;;;7.64;100.00;100684.50;4973952;28;21025;-73
2023/11/10 09:01:23;;;;;;;6.30;3.90;;;;;;;7.34;100.00;100663.09;4972915;28;20243;-73
2023/11/10 09:03:49;;;;;;;6.67;3.97;;;;;;;7.71;100.00;100690.75;4969821;28;20213;-73
2023/11/10 09:06:14;;;;;;;8.07;4.47;;;;;;;7.69;100.00;100692.75;4987982;28;20185;-73
2023/11/10 09:08:41;;;;;;;8.27;4.40;;;;;;;7.46;100.00;100648.31;4990523;28;20436;-73
2023/11/10 09:11:07;;;;;;;8.47;4.73;;;;;;;7.64;100.00;100693.34;4990571;28;20205;-73
2023/11/10 09:13:32;;;;;;;6.83;4.10;;;;;;;7.48;100.00;100656.13;4984509;28;20532;-73
2023/11/10 09:15:59;;;;;;;8.70;4.13;;;;;;;7.58;100.00;100664.72;4993700;28;20435;-74
2023/11/10 09:18:25;;;;;;;9.93;4.50;;;;;;;7.42;100.00;100631.00;4990331;28;20443;-73
2023/11/10 09:20:50;;;;;;;10.93;4.50;;;;;;;7.63;100.00;100642.78;4988654;28;20448;-73
2023/11/10 09:23:15;;;;;;;9.87;4.20;;;;;;;7.78;100.00;100656.97;4971760;28;20182;-73
2023/11/10 09:25:41;;;;;;;7.03;4.13;;;;;;;7.38;100.00;100581.69;4989316;28;20182;-73
2023/11/10 09:28:07;;;;;;;7.33;4.27;;;;;;;7.77;100.00;100609.91;4986000;28;20280;-73
2023/11/10 09:30:33;;;;;;;12.47;5.13;;;;;;;7.73;100.00;100605.97;4969102;28;20210;-73
2023/11/10 09:32:59;;;;;;;8.10;4.13;;;;;;;7.32;100.00;100529.06;4987814;28;20487;-73
2023/11/10 09:35:26;;;;;;;12.40;4.10;;;;;;;7.69;100.00;100584.16;4989997;28;20716;-73
2023/11/10 09:37:52;;;;;;;7.10;4.03;;;;;;;7.79;100.00;100615.06;4983734;28;20451;-73
2023/11/10 09:40:19;;;;;;;11.43;4.37;;;;;;;7.84;100.00;100618.00;4963508;28;20516;-73
2023/11/10 09:42:45;;;;;;;7.87;4.00;;;;;;;7.77;100.00;100628.59;4980557;28;20234;-73
2023/11/10 09:45:14;;;;;;;9.83;4.77;;;;;;;7.59;100.00;100588.13;4971069;28;20468;-73
2023/11/10 09:47:44;;;;;;;10.40;4.27;;;;;;;7.81;100.00;100619.22;4965055;28;20201;-73
2023/11/10 09:50:13;;;;;;;7.20;4.50;;;;;;;7.83;100.00;100625.19;4965834;28;20469;-73
2023/11/10 09:52:40;;;;;;;9.60;3.83;;;;;;;7.84;100.00;100618.84;4990594;28;20452;-74
2023/11/10 09:55:06;;;;;;;8.30;4.17;;;;;;;7.97;100.00;100631.53;4988951;28;20491;-73
2023/11/10 09:57:32;;;;;;;6.20;4.10;;;;;;;7.98;100.00;100635.03;4987795;28;20435;-73
2023/11/10 09:59:58;;;;;;;8.73;3.97;;;;;;;7.81;100.00;100587.19;4988673;28;20524;-74
2023/11/10 10:02:24;;;;;;;9.63;3.70;;;;;;;8.11;100.00;100629.84;4969784;28;20217;-73
2023/11/10 10:04:49;;;;;;;7.40;3.77;;;;;;;7.78;100.00;100568.88;4979444;28;20186;-73
2023/11/10 10:07:16;;;;;;;7.30;3.07;;;;;;;7.97;100.00;100585.31;4981599;28;20274;-73
2023/11/10 10:09:43;;;;;;;12.57;3.20;;;;;;;8.00;100.00;100625.81;4988006;28;20205;-73
2023/11/10 10:12:10;;;;;;;7.83;3.63;;;;;;;7.98;100.00;100610.97;4967369;28;20489;-71
2023/11/10 10:14:36;;;;;;;11.27;3.07;;;;;;;7.88;100.00;100604.09;4984776;28;20440;-75
2023/11/10 10:17:03;;;;;;;10.93;4.43;;;;;;;8.05;100.00;100638.63;4986400;28;20432;-74
2023/11/10 10:19:29;;;;;;;8.80;3.30;;;;;;;8.01;100.00;100648.00;4965889;28;20485;-74
2023/11/10 10:21:55;;;;;;;11.40;4.67;;;;;;;8.13;100.00;100625.97;4981774;28;20492;-74
2023/11/10 10:24:21;;;;;;;7.93;2.50;;;;;;;8.13;100.00;100627.81;4981269;28;20437;-73
2023/11/10 10:26:48;;;;;;;9.90;2.80;;;;;;;8.22;100.00;100616.00;4984945;28;20527;-73
2023/11/10 10:29:14;;;;;;;9.37;2.70;;;;;;;8.08;100.00;100620.38;4981159;28;20739;-73
2023/11/10 10:31:40;;;;;;;8.03;2.90;;;;;;;7.99;100.00;100576.09;4981934;28;20457;-73
2023/11/10 10:34:06;;;;;;;13.90;2.77;;;;;;;8.31;100.00;100616.72;4982820;28;20433;-73
2023/11/10 10:36:38;;;;;;;10.97;2.27;;;;;;;8.19;100.00;100608.38;4984031;28;20440;-74
2023/11/10 10:39:11;;;;;;;7.40;2.63;;;;;;;8.25;100.00;100599.59;4986077;28;20427;-74
2023/11/10 10:41:40;;;;;;;8.20;3.00;;;;;;;8.01;100.00;100554.50;4982175;28;20556;-74
2023/11/10 10:44:06;;;;;;;9.30;2.43;;;;;;;8.15;100.00;100570.50;4984905;28;20590;-73
2023/11/10 10:46:39;;;;;;;9.80;2.27;;;;;;;8.27;100.00;100575.34;4969015;28;20441;-74
2023/11/10 10:49:06;;;;;;;10.10;2.40;;;;;;;8.17;100.00;100566.81;4967622;28;20424;-74
2023/11/10 10:51:37;;;;;;;7.30;2.43;;;;;;;8.19;100.00;100556.75;4965828;28;20500;-73
2023/11/10 10:54:07;;;;;;;15.03;2.97;;;;;;;8.12;100.00;100544.16;4972520;28;20460;-73
2023/11/10 10:56:37;;;;;;;6.10;2.20;;;;;;;8.29;100.00;100549.25;4981918;28;20936;-73
2023/11/10 10:59:07;;;;;;;9.53;3.00;;;;;;;8.02;100.00;100524.13;4968647;28;20448;-73
2023/11/10 11:01:33;;;;;;;7.50;2.40;;;;;;;8.17;100.00;100532.09;4970360;28;20460;-74
2023/11/10 11:04:11;;;;;;;8.93;2.77;;;;;;;8.17;100.00;100538.25;4992021;28;20433;-73
2023/11/10 11:06:59;;;;;;;7.90;2.60;;;;;;;8.19;100.00;100538.91;4993692;28;21017;-74
2023/11/10 11:09:24;;;;;;;7.50;2.10;;;;;;;8.13;100.00;100540.50;4984745;28;20471;-74
2023/11/10 11:11:53;;;;;;;9.40;2.37;;;;;;;8.31;100.00;100542.72;4979873;28;20468;-74
2023/11/10 11:14:39;;;;;;;8.23;2.53;;;;;;;8.06;100.00;100504.03;4981986;28;20194;-74
2023/11/10 11:17:06;;;;;;;5.20;1.67;;;;;;;8.05;100.00;100551.28;4984919;28;20501;-74
2023/11/10 11:19:34;;;;;;;7.70;2.07;;;;;;;7.80;100.00;100499.25;4981718;28;20464;-74
2023/11/10 11:22:01;;;;;;;4.20;1.77;;;;;;;8.02;100.00;100535.66;4979461;28;20826;-73